createdAt,value
2022-08-25T00:00:12.206Z,86.73
2022-08-25T00:02:39.237Z,86.79
2022-08-25T00:05:08.085Z,87.13
2022-08-25T00:07:36.901Z,88.00
2022-08-25T00:10:07.613Z,87.58
2022-08-25T00:12:34.602Z,88.24
2022-08-25T00:15:01.785Z,88.51
2022-08-25T00:17:29.015Z,88.70
2022-08-25T00:19:55.993Z,89.01
2022-08-25T00:22:23.258Z,89.42
2022-08-25T00:24:50.213Z,89.23
2022-08-25T00:27:18.151Z,89.12
2022-08-25T00:29:45.187Z,89.80
2022-08-25T00:32:12.818Z,89.48
2022-08-25T00:34:40.118Z,89.31
2022-08-25T00:37:09.530Z,89.53
2022-08-25T00:39:37.725Z,89.98
2022-08-25T00:42:11.725Z,89.76
2022-08-25T00:44:44.068Z,89.21
2022-08-25T00:47:11.449Z,90.33
2022-08-25T00:49:59.269Z,90.71
2022-08-25T00:52:36.051Z,90.90
2022-08-25T00:55:15.873Z,91.10
2022-08-25T00:58:11.631Z,91.98
2022-08-25T01:00:47.190Z,92.42
2022-08-25T01:03:14.741Z,91.91
2022-08-25T01:05:43.495Z,92.25
2022-08-25T01:08:10.885Z,92.43
2022-08-25T01:10:42.664Z,92.83
2022-08-25T01:13:20.766Z,93.07
2022-08-25T01:15:50.057Z,93.03
2022-08-25T01:18:17.095Z,92.32
2022-08-25T01:20:44.208Z,92.29
2022-08-25T01:23:11.190Z,92.57
2022-08-25T01:26:18.710Z,92.95
2022-08-25T01:29:08.798Z,93.08
2022-08-25T01:31:38.185Z,93.83
2022-08-25T01:34:07.360Z,93.86
2022-08-25T01:36:35.741Z,93.64
2022-08-25T01:39:04.395Z,93.20
2022-08-25T01:42:13.322Z,93.18
2022-08-25T01:44:45.107Z,93.21
2022-08-25T01:47:13.831Z,93.29
2022-08-25T01:49:41.188Z,93.45
2022-08-25T01:52:17.062Z,93.49
2022-08-25T01:54:44.284Z,93.75
2022-08-25T01:57:11.381Z,94.45
2022-08-25T01:59:38.670Z,94.76
2022-08-25T02:02:06.730Z,95.29
2022-08-25T02:04:34.862Z,95.61
2022-08-25T02:07:06.344Z,95.99
2022-08-25T02:09:34.623Z,95.69
2022-08-25T02:12:01.610Z,96.06
2022-08-25T02:14:28.684Z,95.93
2022-08-25T02:16:57.164Z,96.17
2022-08-25T02:19:26.060Z,96.67
2022-08-25T02:21:54.018Z,96.92
2022-08-25T02:24:21.369Z,96.04
2022-08-25T02:26:48.634Z,96.26
2022-08-25T02:29:16.942Z,97.38
2022-08-25T02:31:44.846Z,97.88
2022-08-25T02:34:12.576Z,97.74
2022-08-25T02:36:40.193Z,97.94
2022-08-25T02:39:09.564Z,97.57
2022-08-25T02:41:37.184Z,97.83
2022-08-25T02:44:05.943Z,98.19
2022-08-25T02:46:34.373Z,98.48
2022-08-25T02:49:01.666Z,98.38
2022-08-25T02:51:30.291Z,98.15
2022-08-25T02:54:02.174Z,98.00
2022-08-25T02:56:31.531Z,98.39
2022-08-25T02:58:59.863Z,98.32
2022-08-25T03:01:29.267Z,98.31
2022-08-25T03:03:57.231Z,97.90
2022-08-25T03:06:24.992Z,98.04
2022-08-25T03:08:53.293Z,98.28
2022-08-25T03:11:21.198Z,97.48
2022-08-25T03:13:51.088Z,97.71
2022-08-25T03:16:19.728Z,96.53
2022-08-25T03:18:48.853Z,95.53
2022-08-25T03:21:16.878Z,94.64
2022-08-25T03:23:45.714Z,95.07
2022-08-25T03:26:31.656Z,95.40
2022-08-25T03:28:58.934Z,95.98
2022-08-25T03:31:27.785Z,96.81
2022-08-25T03:33:55.662Z,98.55
2022-08-25T03:36:23.015Z,99.31
2022-08-25T03:38:50.040Z,98.75
2022-08-25T03:41:27.019Z,98.14
2022-08-25T03:43:56.720Z,98.53
2022-08-25T03:46:34.412Z,97.57
2022-08-25T03:49:05.186Z,98.17
2022-08-25T03:51:47.499Z,98.67
2022-08-25T03:54:23.160Z,97.74
2022-08-25T03:56:50.176Z,97.70
2022-08-25T03:59:18.680Z,97.68
2022-08-25T04:01:50.220Z,98.07
2022-08-25T04:04:20.475Z,98.92
2022-08-25T04:06:47.513Z,100.00
2022-08-25T04:09:14.574Z,99.93
2022-08-25T04:11:42.580Z,100.00
2022-08-25T04:14:09.928Z,100.00
2022-08-25T04:16:43.299Z,100.00
2022-08-25T04:19:12.582Z,100.00
2022-08-25T04:21:41.530Z,100.00
2022-08-25T04:24:11.754Z,100.00
2022-08-25T04:26:49.785Z,100.00
2022-08-25T04:29:23.680Z,100.00
2022-08-25T04:31:52.157Z,100.00
2022-08-25T04:34:31.074Z,100.00
2022-08-25T04:37:01.762Z,100.00
2022-08-25T04:39:29.331Z,99.69
2022-08-25T04:41:56.309Z,100.00
2022-08-25T04:44:23.316Z,99.00
2022-08-25T04:46:50.460Z,98.95
2022-08-25T04:49:17.604Z,97.79
2022-08-25T04:51:45.938Z,96.83
2022-08-25T04:54:21.824Z,95.84
2022-08-25T04:56:54.221Z,96.67
2022-08-25T04:59:21.788Z,95.25
2022-08-25T05:01:50.949Z,94.13
2022-08-25T05:04:28.105Z,94.79
2022-08-25T05:06:56.764Z,94.40
2022-08-25T05:09:25.195Z,92.25
2022-08-25T05:11:53.776Z,90.16
2022-08-25T05:14:25.731Z,90.86
2022-08-25T05:16:58.050Z,88.36
2022-08-25T05:19:26.489Z,88.22
2022-08-25T05:21:54.306Z,87.42
2022-08-25T05:24:22.340Z,84.20
2022-08-25T05:26:49.894Z,81.23
2022-08-25T05:29:17.552Z,67.85
2022-08-25T05:31:50.109Z,59.36
2022-08-25T05:34:19.608Z,53.61
2022-08-25T05:36:48.212Z,48.82
2022-08-25T05:39:15.463Z,47.09
2022-08-25T05:41:42.579Z,44.47
2022-08-25T05:44:09.719Z,43.05
2022-08-25T05:46:36.873Z,42.47
2022-08-25T05:49:03.970Z,40.33
2022-08-25T05:51:31.010Z,38.31
2022-08-25T05:53:57.951Z,36.48
2022-08-25T05:56:25.003Z,35.97
2022-08-25T05:58:51.963Z,35.33
2022-08-25T06:01:43.536Z,34.98
2022-08-25T06:04:13.928Z,41.88
2022-08-25T06:06:42.180Z,45.23
2022-08-25T06:09:10.268Z,47.58
2022-08-25T06:11:40.083Z,48.08
2022-08-25T06:14:09.352Z,48.25
2022-08-25T06:16:36.773Z,49.57
2022-08-25T06:19:04.398Z,50.22
2022-08-25T06:21:31.432Z,43.27
2022-08-25T06:23:58.684Z,39.41
2022-08-25T06:26:26.933Z,35.81
2022-08-25T06:28:54.062Z,33.01
2022-08-25T06:31:22.480Z,32.91
2022-08-25T06:33:50.793Z,32.23
2022-08-25T06:36:19.243Z,32.30
2022-08-25T06:38:47.529Z,29.76
2022-08-25T06:41:16.484Z,30.87
2022-08-25T06:43:48.888Z,29.30
2022-08-25T06:46:31.722Z,28.52
2022-08-25T06:49:03.841Z,27.06
2022-08-25T06:51:30.937Z,26.69
2022-08-25T06:53:58.078Z,26.37
2022-08-25T06:56:25.065Z,26.17
2022-08-25T06:58:53.855Z,26.56
2022-08-25T07:01:27.015Z,26.80
2022-08-25T07:03:59.963Z,30.30
2022-08-25T07:06:32.790Z,31.28
2022-08-25T07:09:00.385Z,33.63
2022-08-25T07:11:28.437Z,35.87
2022-08-25T07:13:55.838Z,36.91
2022-08-25T07:16:27.984Z,36.27
2022-08-25T07:19:00.512Z,38.47
2022-08-25T07:21:33.361Z,39.41
2022-08-25T07:24:07.359Z,38.45
2022-08-25T07:26:38.312Z,37.62
2022-08-25T07:29:32.796Z,39.25
2022-08-25T07:32:05.159Z,38.77
2022-08-25T07:34:52.135Z,37.29
2022-08-25T07:40:14.609Z,35.50
2022-08-25T07:42:42.577Z,34.67
2022-08-25T07:45:11.069Z,34.40
2022-08-25T07:47:39.536Z,33.11
2022-08-25T07:50:10.228Z,34.48
2022-08-25T07:52:38.872Z,33.76
2022-08-25T07:55:10.913Z,32.38
2022-08-25T07:57:41.300Z,32.51
2022-08-25T08:00:11.080Z,32.73
2022-08-25T08:02:42.528Z,31.72
2022-08-25T08:05:12.166Z,31.40
2022-08-25T08:07:43.155Z,29.86
2022-08-25T08:13:01.935Z,29.94
2022-08-25T08:15:29.763Z,29.88
2022-08-25T08:18:00.349Z,30.06
2022-08-25T08:20:29.051Z,29.97
2022-08-25T08:22:56.263Z,29.37
2022-08-25T08:25:26.660Z,28.86
2022-08-25T08:27:56.273Z,27.93
2022-08-25T08:30:26.236Z,28.75
2022-08-25T08:33:12.002Z,28.61
2022-08-25T08:35:41.440Z,29.86
2022-08-25T08:38:14.531Z,29.64
2022-08-25T08:41:26.681Z,29.31
2022-08-25T08:47:11.960Z,31.64
2022-08-25T08:50:12.128Z,31.30
2022-08-25T08:53:09.550Z,30.93
2022-08-25T08:56:04.478Z,30.94
2022-08-25T08:58:57.247Z,31.01
2022-08-25T09:01:56.629Z,30.93
2022-08-25T09:04:35.334Z,30.39
2022-08-25T09:07:11.772Z,31.07
2022-08-25T09:09:42.096Z,30.63
2022-08-25T09:12:48.037Z,31.01
2022-08-25T09:16:07.969Z,30.01
2022-08-25T09:18:51.523Z,28.50
2022-08-25T09:22:35.201Z,28.26
2022-08-25T09:25:12.363Z,31.25
2022-08-25T09:28:08.462Z,31.76
2022-08-25T09:30:50.702Z,33.55
2022-08-25T09:33:22.306Z,34.41
2022-08-25T09:35:53.704Z,34.04
2022-08-25T09:38:21.752Z,33.32
2022-08-25T09:40:54.755Z,31.19
2022-08-25T09:43:44.579Z,28.80
2022-08-25T09:46:14.640Z,29.15
2022-08-25T09:48:56.444Z,30.47
2022-08-25T09:51:38.159Z,31.29
2022-08-25T09:54:12.991Z,30.55
2022-08-25T09:56:53.299Z,30.45
2022-08-25T09:59:36.108Z,31.38
2022-08-25T10:02:28.679Z,32.00
2022-08-25T10:04:56.540Z,31.23
2022-08-25T10:07:37.314Z,31.30
2022-08-25T10:10:18.355Z,31.91
2022-08-25T10:12:51.236Z,32.21
2022-08-25T10:15:29.920Z,30.07
2022-08-25T10:18:26.847Z,31.77
2022-08-25T10:21:14.690Z,31.36
2022-08-25T10:23:55.961Z,31.47
2022-08-25T10:26:48.930Z,31.91
2022-08-25T10:29:40.816Z,31.58
2022-08-25T10:32:26.078Z,30.69
2022-08-25T10:34:59.372Z,31.89
2022-08-25T10:38:21.665Z,31.86
2022-08-25T10:41:08.372Z,30.84
2022-08-25T10:44:34.782Z,31.64
2022-08-25T10:47:40.238Z,29.97
2022-08-25T10:50:29.528Z,28.62
2022-08-25T10:53:36.933Z,28.11
2022-08-25T10:56:21.451Z,27.20
2022-08-25T10:59:24.989Z,25.52
2022-08-25T11:02:07.142Z,22.06
2022-08-25T11:05:06.830Z,22.14
2022-08-25T11:07:41.189Z,22.12
2022-08-25T11:10:15.230Z,22.33
2022-08-25T11:13:03.933Z,22.45
2022-08-25T11:16:16.518Z,21.85
2022-08-25T11:18:57.652Z,21.77
2022-08-25T11:21:52.888Z,22.17
2022-08-25T11:25:10.060Z,20.90
2022-08-25T11:27:53.454Z,21.92
2022-08-25T11:30:21.106Z,23.01
2022-08-25T11:32:52.160Z,22.62
2022-08-25T11:35:42.496Z,22.89
2022-08-25T11:38:39.641Z,23.18
2022-08-25T11:41:28.451Z,23.19
2022-08-25T11:44:38.237Z,23.52
2022-08-25T11:48:12.973Z,23.11
2022-08-25T11:51:27.519Z,23.44
2022-08-25T11:54:42.487Z,23.24
2022-08-25T11:57:16.875Z,23.26
2022-08-25T11:59:57.386Z,23.40
2022-08-25T12:02:47.604Z,23.38
2022-08-25T12:05:17.448Z,23.76
2022-08-25T12:07:47.886Z,23.00
2022-08-25T12:10:24.592Z,22.65
2022-08-25T12:13:25.158Z,23.26
2022-08-25T12:15:52.016Z,22.60
2022-08-25T12:18:22.879Z,22.44
2022-08-25T12:20:56.352Z,22.56
2022-08-25T12:23:33.128Z,22.85
2022-08-25T12:26:27.565Z,21.83
2022-08-25T12:28:57.553Z,22.43
2022-08-25T12:31:45.188Z,22.67
2022-08-25T12:34:43.698Z,22.88
2022-08-25T12:37:21.210Z,23.37
2022-08-25T12:39:51.256Z,22.66
2022-08-25T12:42:43.959Z,22.16
2022-08-25T12:45:14.237Z,22.29
2022-08-25T12:47:47.426Z,22.26
2022-08-25T12:50:43.589Z,22.06
2022-08-25T12:53:23.007Z,21.38
2022-08-25T12:56:01.470Z,21.94
2022-08-25T12:59:14.413Z,21.77
2022-08-25T13:02:07.159Z,21.94
2022-08-25T13:04:43.930Z,22.46
2022-08-25T13:07:48.231Z,22.16
2022-08-25T13:10:24.288Z,22.29
2022-08-25T13:13:06.133Z,22.48
2022-08-25T13:15:48.684Z,22.75
2022-08-25T13:18:33.630Z,22.73
2022-08-25T13:21:38.936Z,22.76
2022-08-25T13:24:32.081Z,23.08
2022-08-25T13:27:22.653Z,23.51
2022-08-25T13:29:58.216Z,23.08
2022-08-25T13:32:32.277Z,22.86
2022-08-25T13:35:39.694Z,22.64
2022-08-25T13:38:18.955Z,22.63
2022-08-25T13:40:46.080Z,22.38
2022-08-25T13:43:15.018Z,22.52
2022-08-25T13:45:48.298Z,22.48
2022-08-25T13:48:37.981Z,22.00
2022-08-25T13:51:31.439Z,21.88
2022-08-25T13:54:06.363Z,22.59
2022-08-25T13:56:41.632Z,22.42
2022-08-25T13:59:26.881Z,22.21
2022-08-25T14:01:55.756Z,22.77
2022-08-25T14:04:51.645Z,22.90
2022-08-25T14:07:22.518Z,22.56
2022-08-25T14:10:00.872Z,22.91
2022-08-25T14:12:45.500Z,23.03
2022-08-25T14:15:18.156Z,22.21
2022-08-25T14:18:00.857Z,22.41
2022-08-25T14:20:31.190Z,22.67
2022-08-25T14:23:04.219Z,22.99
2022-08-25T14:25:35.273Z,22.47
2022-08-25T14:28:07.365Z,22.48
2022-08-25T14:30:39.877Z,22.78
2022-08-25T14:33:12.347Z,22.13
2022-08-25T14:35:41.010Z,22.62
2022-08-25T14:38:11.479Z,23.17
2022-08-25T14:40:39.818Z,22.40
2022-08-25T14:43:09.654Z,23.13
2022-08-25T14:45:43.622Z,23.43
2022-08-25T14:48:44.613Z,23.75
2022-08-25T14:51:14.402Z,23.77
2022-08-25T14:53:43.696Z,23.99
2022-08-25T14:56:10.991Z,24.27
2022-08-25T14:58:51.260Z,24.56
2022-08-25T15:01:28.919Z,24.74
2022-08-25T15:04:15.492Z,24.41
2022-08-25T15:06:43.781Z,24.36
2022-08-25T15:09:16.545Z,24.48
2022-08-25T15:11:48.313Z,24.65
2022-08-25T15:14:29.222Z,24.23
2022-08-25T15:17:02.290Z,24.08
2022-08-25T15:19:29.587Z,24.17
2022-08-25T15:21:58.021Z,24.09
2022-08-25T15:24:28.237Z,24.51
2022-08-25T15:26:59.991Z,25.00
2022-08-25T15:29:30.617Z,24.60
2022-08-25T15:31:59.787Z,24.95
2022-08-25T15:34:27.366Z,24.49
2022-08-25T15:36:59.881Z,24.77
2022-08-25T15:39:27.940Z,24.64
2022-08-25T15:41:57.230Z,24.31
2022-08-25T15:44:29.028Z,24.48
2022-08-25T15:46:56.491Z,24.20
2022-08-25T15:49:24.204Z,24.07
2022-08-25T15:51:55.288Z,24.30
2022-08-25T15:54:27.049Z,24.23
2022-08-25T15:56:56.725Z,24.34
2022-08-25T15:59:25.922Z,25.02
2022-08-25T16:01:54.879Z,24.92
2022-08-25T16:04:25.152Z,25.36
2022-08-25T16:06:54.247Z,25.45
2022-08-25T16:09:23.616Z,25.45
2022-08-25T16:11:56.735Z,25.25
2022-08-25T16:14:26.171Z,25.75
2022-08-25T16:16:58.531Z,25.30
2022-08-25T16:19:28.940Z,25.61
2022-08-25T16:21:56.568Z,25.27
2022-08-25T16:24:23.805Z,25.20
2022-08-25T16:26:51.922Z,25.30
2022-08-25T16:29:20.108Z,25.54
2022-08-25T16:31:53.441Z,24.93
2022-08-25T16:34:24.588Z,25.25
2022-08-25T16:36:55.540Z,25.08
2022-08-25T16:39:23.899Z,25.32
2022-08-25T16:41:52.271Z,25.42
2022-08-25T16:44:22.381Z,25.46
2022-08-25T16:46:54.218Z,25.40
2022-08-25T16:49:21.895Z,25.56
2022-08-25T16:51:57.727Z,25.92
2022-08-25T16:54:44.873Z,25.96
2022-08-25T16:57:12.390Z,26.48
2022-08-25T16:59:39.621Z,26.36
2022-08-25T17:02:06.733Z,26.37
2022-08-25T17:04:33.889Z,26.27
2022-08-25T17:07:01.726Z,26.06
2022-08-25T17:09:29.763Z,27.14
2022-08-25T17:11:57.321Z,27.01
2022-08-25T17:14:25.058Z,26.97
2022-08-25T17:16:55.127Z,26.73
2022-08-25T17:19:25.833Z,27.04
2022-08-25T17:21:54.905Z,27.52
2022-08-25T17:24:22.540Z,27.24
2022-08-25T17:26:56.886Z,27.36
2022-08-25T17:29:23.852Z,27.29
2022-08-25T17:31:51.659Z,27.72
2022-08-25T17:34:23.210Z,28.21
2022-08-25T17:36:51.751Z,28.27
2022-08-25T17:39:22.220Z,28.46
2022-08-25T17:41:50.635Z,28.54
2022-08-25T17:44:18.915Z,28.71
2022-08-25T17:46:47.465Z,29.14
2022-08-25T17:49:16.219Z,28.74
2022-08-25T17:51:43.358Z,28.87
2022-08-25T17:54:12.332Z,29.13
2022-08-25T17:56:39.631Z,29.09
2022-08-25T17:59:07.681Z,29.37
2022-08-25T18:01:40.556Z,29.73
2022-08-25T18:04:17.254Z,29.83
2022-08-25T18:06:45.988Z,29.69
2022-08-25T18:09:13.857Z,30.07
2022-08-25T18:11:41.313Z,30.43
2022-08-25T18:14:11.494Z,30.38
2022-08-25T18:16:38.955Z,30.55
2022-08-25T18:19:09.643Z,30.75
2022-08-25T18:21:37.527Z,30.89
2022-08-25T18:24:06.077Z,31.08
2022-08-25T18:26:33.218Z,31.16
2022-08-25T18:29:00.380Z,30.58
2022-08-25T18:31:27.835Z,30.95
2022-08-25T18:33:54.923Z,31.21
2022-08-25T18:36:21.959Z,31.20
2022-08-25T18:39:08.599Z,31.34
2022-08-25T18:41:40.109Z,31.62
2022-08-25T18:44:07.782Z,31.66
2022-08-25T18:46:35.565Z,31.92
2022-08-25T18:49:03.001Z,31.96
2022-08-25T18:51:32.800Z,32.15
2022-08-25T18:54:01.226Z,32.08
2022-08-25T18:56:29.189Z,32.01
2022-08-25T18:58:57.157Z,32.33
2022-08-25T19:01:24.470Z,32.92
2022-08-25T19:03:51.828Z,32.82
2022-08-25T19:06:20.749Z,32.98
2022-08-25T19:08:48.508Z,33.06
2022-08-25T19:11:17.278Z,33.13
2022-08-25T19:13:49.373Z,33.74
2022-08-25T19:16:38.199Z,33.83
2022-08-25T19:19:07.678Z,33.84
2022-08-25T19:21:35.949Z,33.85
2022-08-25T19:24:03.408Z,33.82
2022-08-25T19:26:31.563Z,33.76
2022-08-25T19:28:58.652Z,34.29
2022-08-25T19:31:27.588Z,34.54
2022-08-25T19:34:00.755Z,34.37
2022-08-25T19:36:30.220Z,34.73
2022-08-25T19:39:00.762Z,34.19
2022-08-25T19:41:31.171Z,34.40
2022-08-25T19:43:59.476Z,34.92
2022-08-25T19:46:35.753Z,34.39
2022-08-25T19:49:18.649Z,34.81
2022-08-25T19:51:51.511Z,34.79
2022-08-25T19:54:29.237Z,34.89
2022-08-25T19:56:57.395Z,35.45
2022-08-25T19:59:40.783Z,35.56
2022-08-25T20:02:15.872Z,35.96
2022-08-25T20:04:49.130Z,35.86
2022-08-25T20:07:20.265Z,36.03
2022-08-25T20:09:47.613Z,36.34
2022-08-25T20:14:49.393Z,36.37
2022-08-25T20:17:24.560Z,36.61
2022-08-25T20:20:02.375Z,36.54
2022-08-25T20:22:34.281Z,36.70
2022-08-25T20:25:18.763Z,36.76
2022-08-25T20:27:53.682Z,36.94
2022-08-25T20:30:28.156Z,37.00
2022-08-25T20:33:00.712Z,37.20
2022-08-25T20:35:29.045Z,37.55
2022-08-25T20:37:58.331Z,37.91
2022-08-25T20:40:29.006Z,37.82
2022-08-25T20:42:58.947Z,38.19
2022-08-25T20:45:26.136Z,38.17
2022-08-25T20:47:53.104Z,37.71
2022-08-25T20:50:23.539Z,37.94
2022-08-25T20:52:54.214Z,37.72
2022-08-25T20:55:21.840Z,37.92
2022-08-25T20:57:49.575Z,38.16
2022-08-25T21:00:17.573Z,38.04
2022-08-25T21:02:46.409Z,37.82
2022-08-25T21:05:13.783Z,38.20
2022-08-25T21:07:41.672Z,38.69
2022-08-25T21:10:14.101Z,37.98
2022-08-25T21:12:42.439Z,37.95
2022-08-25T21:15:10.876Z,38.26
2022-08-25T21:17:38.237Z,38.33
2022-08-25T21:20:08.577Z,38.53
2022-08-25T21:22:37.899Z,38.74
2022-08-25T21:25:05.612Z,38.67
2022-08-25T21:27:33.855Z,38.49
2022-08-25T21:30:01.154Z,38.53
2022-08-25T21:32:28.199Z,38.70
2022-08-25T21:34:56.255Z,38.98
2022-08-25T21:37:25.190Z,38.84
2022-08-25T21:39:53.035Z,38.79
2022-08-25T21:42:22.575Z,39.15
2022-08-25T21:44:50.604Z,39.87
2022-08-25T21:47:20.992Z,39.95
2022-08-25T21:49:49.782Z,39.98
2022-08-25T21:52:17.793Z,40.32
2022-08-25T21:54:45.214Z,40.30
2022-08-25T21:57:12.439Z,40.23
2022-08-25T21:59:41.386Z,40.65
2022-08-25T22:02:14.122Z,40.95
2022-08-25T22:04:42.888Z,41.03
2022-08-25T22:07:11.082Z,40.99
2022-08-25T22:09:39.377Z,41.47
2022-08-25T22:12:07.023Z,41.48
2022-08-25T22:14:35.957Z,42.60
2022-08-25T22:17:03.538Z,42.53
2022-08-25T22:19:30.673Z,42.26
2022-08-25T22:22:01.534Z,42.26
2022-08-25T22:24:28.837Z,42.63
2022-08-25T22:26:56.417Z,42.91
2022-08-25T22:29:25.906Z,43.07
2022-08-25T22:32:02.231Z,43.31
2022-08-25T22:34:34.427Z,43.64
2022-08-25T22:37:04.370Z,43.59
2022-08-25T22:39:34.315Z,43.39
2022-08-25T22:42:02.945Z,43.55
2022-08-25T22:44:30.480Z,43.53
2022-08-25T22:46:57.615Z,43.73
2022-08-25T22:49:29.296Z,44.01
2022-08-25T22:51:57.209Z,44.53
2022-08-25T22:54:25.460Z,45.00
2022-08-25T22:56:53.331Z,44.55
2022-08-25T22:59:20.653Z,44.41
2022-08-25T23:01:50.054Z,44.77
2022-08-25T23:04:17.701Z,45.45
2022-08-25T23:06:47.183Z,45.31
2022-08-25T23:09:14.396Z,45.40
2022-08-25T23:11:42.772Z,44.86
2022-08-25T23:14:11.210Z,44.77
2022-08-25T23:16:43.520Z,45.09
2022-08-25T23:19:13.834Z,46.61
2022-08-25T23:22:01.011Z,46.45
2022-08-25T23:24:30.770Z,45.44
2022-08-25T23:27:00.925Z,45.84
2022-08-25T23:29:29.378Z,45.95
2022-08-25T23:31:58.248Z,46.67
2022-08-25T23:34:26.962Z,47.19
2022-08-25T23:36:55.955Z,47.39
2022-08-25T23:39:23.515Z,48.32
2022-08-25T23:41:52.328Z,48.22
2022-08-25T23:44:21.553Z,48.42
2022-08-25T23:46:49.670Z,49.06
2022-08-25T23:49:20.115Z,49.03
2022-08-25T23:51:52.773Z,49.37
2022-08-25T23:54:21.388Z,49.82
2022-08-25T23:56:51.413Z,49.62
2022-08-25T23:59:24.148Z,49.69
